createdAt,value
2023-05-10T00:00:19.404Z,2.22
2023-05-10T00:03:23.090Z,2.50
2023-05-10T00:06:26.712Z,2.40
2023-05-10T00:09:29.371Z,2.40
2023-05-10T00:12:32.669Z,2.08
2023-05-10T00:15:35.540Z,2.30
2023-05-10T00:18:38.395Z,3.15
2023-05-10T00:21:41.279Z,2.47
2023-05-10T00:24:43.959Z,3.22
2023-05-10T00:27:46.220Z,3.00
2023-05-10T00:30:48.781Z,3.10
2023-05-10T00:33:51.902Z,2.90
2023-05-10T00:36:55.387Z,3.30
2023-05-10T00:39:58.151Z,3.30
2023-05-10T00:43:00.782Z,3.40
2023-05-10T00:46:03.530Z,3.72
2023-05-10T00:49:06.642Z,3.25
2023-05-10T00:52:09.007Z,3.90
2023-05-10T00:55:12.536Z,3.55
2023-05-10T00:58:16.295Z,4.10
2023-05-10T01:01:18.908Z,3.75
2023-05-10T01:04:21.416Z,3.70
2023-05-10T01:07:24.909Z,3.60
2023-05-10T01:10:27.670Z,4.20
2023-05-10T01:13:30.511Z,4.18
2023-05-10T01:16:33.804Z,4.30
2023-05-10T01:22:56.631Z,4.10
2023-05-10T01:26:00.053Z,3.83
2023-05-10T01:29:03.175Z,3.90
2023-05-10T01:32:05.648Z,4.00
2023-05-10T01:35:07.843Z,4.28
2023-05-10T01:38:10.165Z,4.70
2023-05-10T01:41:13.034Z,5.32
2023-05-10T01:44:15.325Z,4.85
2023-05-10T01:47:18.148Z,4.80
2023-05-10T01:50:21.281Z,4.63
2023-05-10T01:53:25.904Z,4.78
2023-05-10T01:56:29.466Z,5.15
2023-05-10T01:59:32.657Z,5.00
2023-05-10T02:02:35.462Z,5.40
2023-05-10T02:05:38.588Z,5.13
2023-05-10T02:08:40.589Z,5.88
2023-05-10T02:11:43.311Z,6.50
2023-05-10T02:14:46.182Z,5.75
2023-05-10T02:17:49.805Z,6.25
2023-05-10T02:20:52.946Z,6.25
2023-05-10T02:23:55.667Z,6.05
2023-05-10T02:26:58.235Z,6.00
2023-05-10T02:30:00.771Z,5.93
2023-05-10T02:33:03.234Z,6.10
2023-05-10T02:36:06.264Z,6.28
2023-05-10T02:39:08.449Z,5.90
2023-05-10T02:42:11.349Z,5.70
2023-05-10T02:45:13.658Z,6.18
2023-05-10T02:48:18.337Z,5.88
2023-05-10T02:51:21.243Z,6.45
2023-05-10T02:54:24.065Z,6.25
2023-05-10T02:57:27.035Z,6.47
2023-05-10T03:00:30.119Z,6.57
2023-05-10T03:03:33.012Z,6.05
2023-05-10T03:06:35.772Z,5.50
2023-05-10T03:09:40.016Z,5.70
2023-05-10T03:12:42.658Z,5.78
2023-05-10T03:15:44.697Z,5.47
2023-05-10T03:18:47.254Z,5.15
2023-05-10T03:21:50.793Z,5.63
2023-05-10T03:24:52.872Z,5.78
2023-05-10T03:27:55.712Z,5.70
2023-05-10T03:30:59.928Z,5.88
2023-05-10T03:34:02.639Z,6.22
2023-05-10T03:37:05.286Z,6.70
2023-05-10T03:40:08.129Z,6.28
2023-05-10T03:43:12.794Z,6.18
2023-05-10T03:46:15.137Z,6.70
2023-05-10T03:49:18.100Z,7.80
2023-05-10T03:52:21.093Z,9.05
2023-05-10T03:55:23.717Z,10.20
2023-05-10T03:58:26.601Z,11.70
2023-05-10T04:01:29.877Z,10.40
2023-05-10T04:04:33.203Z,9.43
2023-05-10T04:07:36.281Z,9.70
2023-05-10T04:10:39.940Z,10.30
2023-05-10T04:13:43.000Z,9.00
2023-05-10T04:16:46.325Z,9.63
2023-05-10T04:19:49.370Z,8.88
2023-05-10T04:22:52.424Z,9.05
2023-05-10T04:25:55.215Z,8.68
2023-05-10T04:28:57.696Z,7.97
2023-05-10T04:32:00.457Z,7.65
2023-05-10T04:35:03.185Z,8.25
2023-05-10T04:38:05.467Z,8.30
2023-05-10T04:41:08.565Z,8.32
2023-05-10T04:44:11.445Z,8.73
2023-05-10T04:47:14.874Z,7.13
2023-05-10T04:50:19.288Z,8.15
2023-05-10T04:53:23.078Z,8.20
2023-05-10T04:56:25.630Z,7.97
2023-05-10T04:59:28.306Z,8.40
2023-05-10T05:02:31.867Z,7.90
2023-05-10T05:05:34.859Z,7.78
2023-05-10T05:08:37.815Z,8.80
2023-05-10T05:11:40.614Z,8.38
2023-05-10T05:14:43.131Z,7.82
2023-05-10T05:17:45.792Z,7.47
2023-05-10T05:20:49.007Z,7.47
2023-05-10T05:23:51.541Z,8.27
2023-05-10T05:26:54.994Z,8.48
2023-05-10T05:29:57.732Z,8.60
2023-05-10T05:33:00.869Z,8.45
2023-05-10T05:36:02.950Z,7.30
2023-05-10T05:39:06.094Z,7.80
2023-05-10T05:42:09.051Z,8.25
2023-05-10T05:45:12.058Z,8.07
2023-05-10T05:48:14.583Z,8.38
2023-05-10T05:51:17.260Z,8.52
2023-05-10T05:54:19.550Z,8.65
2023-05-10T05:57:22.227Z,8.90
2023-05-10T06:00:25.803Z,8.57
2023-05-10T06:03:28.872Z,7.53
2023-05-10T06:06:32.204Z,8.10
2023-05-10T06:09:34.641Z,8.18
2023-05-10T06:12:37.492Z,8.45
2023-05-10T06:15:41.059Z,8.13
2023-05-10T06:18:44.026Z,8.43
2023-05-10T06:21:47.311Z,8.07
2023-05-10T06:24:50.372Z,8.27
2023-05-10T06:27:53.975Z,7.97
2023-05-10T06:30:56.484Z,6.85
2023-05-10T06:33:58.784Z,7.63
2023-05-10T06:37:01.070Z,7.43
2023-05-10T06:40:03.805Z,8.15
2023-05-10T06:43:06.248Z,7.78
2023-05-10T06:46:09.959Z,7.55
2023-05-10T06:49:12.762Z,8.30
2023-05-10T06:52:15.540Z,8.68
2023-05-10T06:55:18.340Z,7.90
2023-05-10T06:58:21.001Z,7.60
2023-05-10T07:01:23.911Z,7.75
2023-05-10T07:04:26.735Z,8.13
2023-05-10T07:07:29.761Z,7.75
2023-05-10T07:10:32.007Z,8.10
2023-05-10T07:13:34.865Z,7.55
2023-05-10T07:16:38.356Z,7.97
2023-05-10T07:19:41.877Z,7.32
2023-05-10T07:22:44.447Z,7.88
2023-05-10T07:25:46.616Z,7.75
2023-05-10T07:28:49.447Z,7.43
2023-05-10T07:31:52.058Z,8.02
2023-05-10T07:34:55.145Z,7.15
2023-05-10T07:37:57.436Z,7.57
2023-05-10T07:40:59.840Z,7.07
2023-05-10T07:44:02.794Z,7.50
2023-05-10T07:47:05.517Z,7.15
2023-05-10T07:50:07.794Z,6.40
2023-05-10T07:53:10.460Z,7.05
2023-05-10T07:56:13.651Z,7.20
2023-05-10T07:59:16.072Z,6.78
2023-05-10T08:02:18.299Z,6.57
2023-05-10T08:05:21.111Z,6.45
2023-05-10T08:08:23.734Z,6.28
2023-05-10T08:11:26.247Z,6.35
2023-05-10T08:14:29.142Z,6.15
2023-05-10T08:17:32.994Z,5.65
2023-05-10T08:20:35.477Z,5.47
2023-05-10T08:23:37.723Z,5.53
2023-05-10T08:26:40.102Z,4.53
2023-05-10T08:29:49.917Z,5.13
2023-05-10T08:32:53.391Z,5.13
2023-05-10T08:35:56.169Z,4.75
2023-05-10T08:38:58.685Z,4.60
2023-05-10T08:42:01.506Z,5.15
2023-05-10T08:45:05.383Z,4.55
2023-05-10T08:48:08.112Z,4.28
2023-05-10T08:51:11.087Z,4.63
2023-05-10T08:54:14.521Z,4.10
2023-05-10T08:57:17.070Z,3.80
2023-05-10T09:00:19.577Z,3.55
2023-05-10T09:03:22.062Z,3.90
2023-05-10T09:06:25.374Z,3.30
2023-05-10T09:09:28.854Z,3.47
2023-05-10T09:12:32.285Z,3.55
2023-05-10T09:15:35.344Z,3.30
2023-05-10T09:18:37.924Z,3.40
2023-05-10T09:21:39.966Z,3.53
2023-05-10T09:24:43.197Z,3.00
2023-05-10T09:27:46.645Z,3.50
2023-05-10T09:30:50.019Z,3.35
2023-05-10T09:33:52.633Z,3.10
2023-05-10T09:36:55.443Z,3.22
2023-05-10T09:39:58.515Z,2.88
2023-05-10T09:43:01.512Z,3.20
2023-05-10T09:46:04.305Z,3.13
2023-05-10T09:49:06.638Z,3.20
2023-05-10T09:52:09.343Z,2.90
2023-05-10T09:55:11.657Z,2.92
2023-05-10T09:58:14.394Z,2.97
2023-05-10T10:01:18.155Z,3.40
2023-05-10T10:04:21.649Z,3.00
2023-05-10T10:07:23.756Z,2.92
2023-05-10T10:10:26.090Z,2.90
2023-05-10T10:13:28.346Z,2.97
2023-05-10T10:16:31.596Z,3.13
2023-05-10T10:19:34.794Z,3.53
2023-05-10T10:22:38.242Z,3.50
2023-05-10T10:25:40.726Z,3.47
2023-05-10T10:28:43.903Z,5.20
2023-05-10T10:31:47.061Z,7.82
2023-05-10T10:34:49.869Z,7.38
2023-05-10T10:37:52.115Z,9.45
2023-05-10T10:40:54.784Z,8.63
2023-05-10T10:43:57.378Z,8.02
2023-05-10T10:47:00.061Z,6.50
2023-05-10T10:50:03.297Z,6.30
2023-05-10T10:53:06.272Z,6.07
2023-05-10T10:56:08.375Z,4.97
2023-05-10T10:59:11.244Z,5.15
2023-05-10T11:02:14.068Z,4.72
2023-05-10T11:05:17.468Z,4.40
2023-05-10T11:08:20.746Z,4.40
2023-05-10T11:11:23.491Z,4.38
2023-05-10T11:14:26.243Z,3.70
2023-05-10T11:17:29.294Z,3.85
2023-05-10T11:20:32.711Z,3.85
2023-05-10T11:23:35.421Z,3.67
2023-05-10T11:26:37.748Z,3.90
2023-05-10T11:29:40.885Z,3.63
2023-05-10T11:32:44.610Z,3.70
2023-05-10T11:35:47.663Z,4.40
2023-05-10T11:38:50.426Z,4.30
2023-05-10T11:41:53.179Z,4.18
2023-05-10T11:44:55.931Z,3.58
2023-05-10T11:47:58.620Z,3.70
2023-05-10T11:51:01.606Z,3.72
2023-05-10T11:54:04.458Z,4.57
2023-05-10T11:57:07.410Z,4.03
2023-05-10T12:00:09.803Z,3.67
2023-05-10T12:03:12.610Z,3.97
2023-05-10T12:06:16.124Z,3.70
2023-05-10T12:09:22.970Z,4.10
2023-05-10T12:12:34.710Z,3.70
2023-05-10T12:15:38.213Z,3.78
2023-05-10T12:18:40.516Z,3.45
2023-05-10T12:21:43.575Z,3.70
2023-05-10T12:24:46.105Z,3.75
2023-05-10T12:27:48.856Z,3.05
2023-05-10T12:30:51.102Z,3.03
2023-05-10T12:33:53.848Z,3.40
2023-05-10T12:36:57.175Z,3.17
2023-05-10T12:40:00.731Z,3.20
2023-05-10T12:43:03.512Z,3.22
2023-05-10T12:46:06.428Z,2.60
2023-05-10T12:49:09.871Z,2.70
2023-05-10T12:52:12.716Z,2.28
2023-05-10T12:55:15.690Z,2.75
2023-05-10T12:58:34.454Z,2.75
2023-05-10T13:01:38.562Z,2.53
2023-05-10T13:04:42.686Z,2.50
2023-05-10T13:07:46.300Z,2.55
2023-05-10T13:10:50.264Z,2.60
2023-05-10T13:13:53.692Z,2.60
2023-05-10T13:16:57.457Z,2.30
2023-05-10T13:20:00.558Z,2.33
2023-05-10T13:23:02.787Z,2.00
2023-05-10T13:26:05.397Z,2.30
2023-05-10T13:29:08.405Z,3.00
2023-05-10T13:32:10.680Z,2.20
2023-05-10T13:35:13.750Z,2.42
2023-05-10T13:38:16.509Z,2.00
2023-05-10T13:41:19.313Z,2.03
2023-05-10T13:44:21.494Z,2.65
2023-05-10T13:47:24.654Z,2.33
2023-05-10T13:50:26.905Z,2.10
2023-05-10T13:53:29.789Z,2.03
2023-05-10T13:56:32.492Z,2.10
2023-05-10T13:59:34.986Z,1.90
2023-05-10T14:02:37.970Z,2.20
2023-05-10T14:05:40.820Z,1.75
2023-05-10T14:08:44.598Z,1.80
2023-05-10T14:11:47.887Z,1.70
2023-05-10T14:14:50.914Z,1.80
2023-05-10T14:17:53.724Z,1.50
2023-05-10T14:20:56.476Z,1.63
2023-05-10T14:23:59.235Z,1.38
2023-05-10T14:27:02.265Z,1.27
2023-05-10T14:30:05.091Z,1.30
2023-05-10T14:33:07.323Z,1.30
2023-05-10T14:36:10.452Z,1.25
2023-05-10T14:39:13.125Z,1.30
2023-05-10T14:42:15.719Z,1.58
2023-05-10T14:45:18.554Z,1.60
2023-05-10T14:48:21.144Z,1.33
2023-05-10T14:51:24.090Z,1.40
2023-05-10T14:54:27.215Z,1.42
2023-05-10T14:57:30.247Z,1.58
2023-05-10T15:00:33.234Z,1.52
2023-05-10T15:03:37.805Z,1.40
2023-05-10T15:06:41.631Z,1.42
2023-05-10T15:09:45.078Z,1.63
2023-05-10T15:12:47.992Z,1.40
2023-05-10T15:15:51.053Z,1.30
2023-05-10T15:18:54.896Z,1.58
2023-05-10T15:21:57.388Z,1.50
2023-05-10T15:25:00.504Z,1.27
2023-05-10T15:28:04.224Z,1.15
2023-05-10T15:31:07.935Z,1.40
2023-05-10T15:34:10.725Z,1.10
2023-05-10T15:37:13.131Z,1.17
2023-05-10T15:40:16.135Z,1.25
2023-05-10T15:43:19.232Z,1.25
2023-05-10T15:46:22.972Z,1.25
2023-05-10T15:49:25.555Z,1.30
2023-05-10T15:52:28.355Z,1.20
2023-05-10T15:55:30.668Z,1.50
2023-05-10T15:58:33.277Z,2.17
2023-05-10T16:01:37.145Z,3.63
2023-05-10T16:04:40.190Z,5.78
2023-05-10T16:07:42.954Z,8.00
2023-05-10T16:10:45.715Z,6.43
2023-05-10T16:13:48.330Z,5.90
2023-05-10T16:16:50.866Z,5.28
2023-05-10T16:19:53.664Z,5.80
2023-05-10T16:22:56.425Z,5.15
2023-05-10T16:25:58.987Z,4.63
2023-05-10T16:29:02.156Z,5.30
2023-05-10T16:32:05.141Z,4.15
2023-05-10T16:35:07.752Z,4.10
2023-05-10T16:38:10.212Z,4.20
2023-05-10T16:41:13.302Z,4.03
2023-05-10T16:44:17.601Z,3.97
2023-05-10T16:47:21.272Z,3.63
2023-05-10T16:50:24.578Z,3.60
2023-05-10T16:53:27.080Z,3.40
2023-05-10T16:56:29.760Z,3.20
2023-05-10T16:59:32.958Z,3.15
2023-05-10T17:02:36.237Z,3.10
2023-05-10T17:05:39.712Z,3.08
2023-05-10T17:08:43.501Z,2.80
2023-05-10T17:11:46.421Z,3.00
2023-05-10T17:14:49.596Z,2.70
2023-05-10T17:17:52.390Z,2.58
2023-05-10T17:20:55.215Z,2.72
2023-05-10T17:23:58.676Z,2.67
2023-05-10T17:27:01.258Z,2.22
2023-05-10T17:30:04.213Z,2.50
2023-05-10T17:33:07.436Z,2.40
2023-05-10T17:36:10.482Z,2.13
2023-05-10T17:39:13.241Z,2.28
2023-05-10T17:42:16.485Z,1.90
2023-05-10T17:45:19.850Z,1.90
2023-05-10T17:48:22.779Z,2.05
2023-05-10T17:51:25.170Z,1.98
2023-05-10T17:54:28.164Z,2.30
2023-05-10T17:57:31.015Z,2.60
2023-05-10T18:00:33.912Z,2.20
2023-05-10T18:03:36.271Z,2.38
2023-05-10T18:06:38.594Z,2.10
2023-05-10T18:09:41.629Z,2.25
2023-05-10T18:12:44.632Z,2.30
2023-05-10T18:15:47.217Z,2.22
2023-05-10T18:18:49.877Z,2.05
2023-05-10T18:21:53.485Z,2.22
2023-05-10T18:24:56.286Z,2.08
2023-05-10T18:27:59.001Z,2.33
2023-05-10T18:31:01.424Z,2.40
2023-05-10T18:34:03.959Z,2.38
2023-05-10T18:37:07.044Z,2.58
2023-05-10T18:40:09.560Z,2.30
2023-05-10T18:43:11.549Z,2.10
2023-05-10T18:46:13.979Z,2.40
2023-05-10T18:49:16.321Z,2.13
2023-05-10T18:52:19.112Z,2.00
2023-05-10T18:55:21.086Z,2.00
2023-05-10T18:58:23.963Z,1.95
2023-05-10T19:01:26.450Z,2.10
2023-05-10T19:04:28.832Z,2.10
2023-05-10T19:07:31.712Z,1.98
2023-05-10T19:10:34.089Z,1.70
2023-05-10T19:13:37.139Z,1.80
2023-05-10T19:16:41.618Z,2.15
2023-05-10T19:19:45.699Z,1.85
2023-05-10T19:23:02.612Z,2.28
2023-05-10T19:26:11.813Z,1.80
2023-05-10T19:29:16.029Z,1.92
2023-05-10T19:32:19.507Z,1.92
2023-05-10T19:35:23.112Z,2.10
2023-05-10T19:38:25.998Z,1.65
2023-05-10T19:41:28.262Z,1.85
2023-05-10T19:44:30.939Z,1.90
2023-05-10T19:47:36.665Z,1.75
2023-05-10T19:50:41.195Z,2.20
2023-05-10T19:53:43.821Z,2.15
2023-05-10T19:56:46.616Z,1.90
2023-05-10T19:59:49.882Z,1.90
2023-05-10T20:02:53.372Z,1.80
2023-05-10T20:05:56.218Z,2.00
2023-05-10T20:08:58.971Z,1.90
2023-05-10T20:12:02.031Z,2.00
2023-05-10T20:15:04.989Z,1.58
2023-05-10T20:18:07.678Z,1.55
2023-05-10T20:21:11.108Z,1.70
2023-05-10T20:24:14.221Z,1.77
2023-05-10T20:27:17.281Z,1.65
2023-05-10T20:30:20.359Z,1.40
2023-05-10T20:33:22.786Z,1.60
2023-05-10T20:36:25.811Z,1.65
2023-05-10T20:39:28.333Z,1.65
2023-05-10T20:42:31.594Z,1.40
2023-05-10T20:45:34.742Z,1.30
2023-05-10T20:48:38.160Z,1.38
2023-05-10T20:51:40.894Z,1.33
2023-05-10T20:54:44.113Z,1.40
2023-05-10T20:57:47.156Z,1.30
2023-05-10T21:00:49.450Z,1.65
2023-05-10T21:03:52.180Z,1.20
2023-05-10T21:06:55.417Z,1.50
2023-05-10T21:09:59.384Z,1.50
2023-05-10T21:13:02.993Z,1.30
2023-05-10T21:16:05.840Z,1.17
2023-05-10T21:19:08.795Z,1.10
2023-05-10T21:22:11.677Z,1.40
2023-05-10T21:25:14.733Z,1.30
2023-05-10T21:28:17.460Z,1.20
2023-05-10T21:31:20.998Z,1.30
2023-05-10T21:34:23.332Z,1.38
2023-05-10T21:37:26.495Z,1.30
2023-05-10T21:40:30.007Z,1.17
2023-05-10T21:43:32.740Z,1.27
2023-05-10T21:46:35.540Z,1.35
2023-05-10T21:49:39.074Z,1.30
2023-05-10T21:52:41.770Z,1.30
2023-05-10T21:55:44.025Z,1.40
2023-05-10T21:58:47.191Z,1.10
2023-05-10T22:01:50.694Z,1.33
2023-05-10T22:04:53.224Z,1.50
2023-05-10T22:07:56.562Z,1.30
2023-05-10T22:10:59.888Z,1.38
2023-05-10T22:14:02.890Z,1.70
2023-05-10T22:17:05.662Z,1.42
2023-05-10T22:20:08.816Z,1.40
2023-05-10T22:23:11.771Z,1.50
2023-05-10T22:26:14.611Z,1.58
2023-05-10T22:29:17.244Z,1.75
2023-05-10T22:32:20.273Z,2.00
2023-05-10T22:35:23.148Z,1.83
2023-05-10T22:38:25.842Z,1.60
2023-05-10T22:41:28.583Z,1.67
2023-05-10T22:44:30.679Z,1.83
2023-05-10T22:47:33.011Z,2.00
2023-05-10T22:50:35.784Z,1.90
2023-05-10T22:53:38.423Z,1.85
2023-05-10T22:56:41.396Z,1.85
2023-05-10T22:59:44.127Z,1.70
2023-05-10T23:02:46.627Z,2.10
2023-05-10T23:05:49.385Z,1.90
2023-05-10T23:08:52.209Z,2.10
2023-05-10T23:11:54.224Z,1.85
2023-05-10T23:14:56.558Z,2.00
2023-05-10T23:17:59.383Z,2.00
2023-05-10T23:21:02.165Z,1.92
2023-05-10T23:24:05.168Z,1.92
2023-05-10T23:27:07.547Z,1.90
2023-05-10T23:30:09.572Z,2.10
2023-05-10T23:33:12.389Z,1.67
2023-05-10T23:36:15.381Z,1.90
2023-05-10T23:39:18.267Z,1.90
2023-05-10T23:42:20.984Z,2.10
2023-05-10T23:45:24.898Z,1.73
2023-05-10T23:48:28.285Z,1.70
2023-05-10T23:51:31.394Z,1.83
2023-05-10T23:54:34.583Z,1.90
2023-05-10T23:57:37.958Z,1.88
